Time;durP1;ratioP1;P1;durP2;ratioP2;P2;SDS_P1;SDS_P2;PMS_P1;PMS_P2;Temp;Humidity;BMP_temperature;BMP_pressure;BME280_temperature;BME280_humidity;BME280_pressure;Samples;Min_cycle;Max_cycle;Signal;HPM_P1;HPM_P2
2022/06/14 04:00:37;;;;;;;11.73;8.67;;;14.90;99.90;;;;;;5993713;22;20380;-65
2022/06/14 04:03:23;;;;;;;8.73;7.83;;;14.90;99.90;;;;;;4997623;28;20484;-64
2022/06/14 04:06:09;;;;;;;8.90;8.00;;;14.90;99.90;;;;;;4996758;28;20442;-65
2022/06/14 04:08:51;;;;;;;12.33;8.30;;;14.90;99.90;;;;;;4996963;28;20497;-65
2022/06/14 04:11:25;;;;;;;9.40;7.77;;;14.90;99.90;;;;;;4996736;28;20513;-65
2022/06/14 04:14:04;;;;;;;11.30;7.40;;;14.90;99.90;;;;;;4996738;28;20851;-64
2022/06/14 04:16:41;;;;;;;7.77;7.00;;;14.80;99.90;;;;;;4996949;28;20445;-64
2022/06/14 04:19:16;;;;;;;8.90;8.00;;;14.80;99.90;;;;;;4996790;28;20441;-64
2022/06/14 04:21:52;;;;;;;8.33;7.47;;;14.80;99.90;;;;;;4996870;28;20468;-64
2022/06/14 04:24:28;;;;;;;9.43;7.17;;;14.80;99.90;;;;;;4996159;28;20983;-64
2022/06/14 04:26:59;;;;;;;8.37;6.90;;;14.80;99.90;;;;;;4996222;28;20779;-65
2022/06/14 04:29:32;;;;;;;7.43;6.43;;;14.80;99.90;;;;;;4996878;28;20438;-64
2022/06/14 04:32:04;;;;;;;7.60;6.73;;;14.70;99.90;;;;;;4996539;28;20470;-65
2022/06/14 04:34:36;;;;;;;7.87;7.07;;;14.70;99.90;;;;;;4996770;28;20442;-64
2022/06/14 04:37:09;;;;;;;8.03;7.33;;;14.70;99.90;;;;;;4997837;28;20438;-64
2022/06/14 04:39:40;;;;;;;8.20;7.40;;;14.70;99.90;;;;;;4996368;28;20910;-64
2022/06/14 04:42:11;;;;;;;10.50;6.80;;;14.70;99.90;;;;;;4995857;28;21007;-64
2022/06/14 04:44:43;;;;;;;8.40;7.40;;;14.80;99.90;;;;;;4995839;28;20465;-65
2022/06/14 04:47:17;;;;;;;8.93;7.93;;;14.80;99.90;;;;;;4995651;28;20779;-64
2022/06/14 04:49:48;;;;;;;10.03;7.57;;;14.90;99.90;;;;;;4995921;28;20445;-64
2022/06/14 04:52:20;;;;;;;14.63;8.40;;;14.90;99.90;;;;;;4995591;28;20528;-64
2022/06/14 04:54:53;;;;;;;11.10;8.60;;;14.90;99.90;;;;;;4995720;28;20841;-62
2022/06/14 04:57:24;;;;;;;8.33;7.53;;;15.00;99.90;;;;;;4995552;28;20529;-63
2022/06/14 04:59:53;;;;;;;8.87;8.07;;;14.90;99.90;;;;;;4995576;28;20442;-63
2022/06/14 05:02:25;;;;;;;9.30;8.40;;;15.00;99.90;;;;;;4995231;28;20988;-63
2022/06/14 05:04:55;;;;;;;8.73;6.57;;;15.00;99.90;;;;;;4995681;28;20442;-64
2022/06/14 05:07:27;;;;;;;12.07;9.20;;;15.10;99.90;;;;;;4995416;28;20465;-64
2022/06/14 05:09:59;;;;;;;11.23;8.20;;;15.10;99.90;;;;;;4995401;28;20446;-64
2022/06/14 05:12:31;;;;;;;11.80;9.27;;;15.10;99.90;;;;;;4995409;28;20478;-63
2022/06/14 05:15:02;;;;;;;14.23;8.27;;;15.30;99.90;;;;;;4995485;28;20442;-63
2022/06/14 05:17:36;;;;;;;11.90;8.50;;;15.40;99.90;;;;;;4995401;28;20836;-63
2022/06/14 05:20:10;;;;;;;10.07;8.20;;;15.40;99.90;;;;;;4995286;28;20482;-63
2022/06/14 05:22:42;;;;;;;8.37;6.73;;;15.60;99.90;;;;;;4995458;28;20852;-63
2022/06/14 05:25:10;;;;;;;11.77;7.03;;;15.70;99.90;;;;;;4994980;28;20469;-63
2022/06/14 05:27:58;;;;;;;8.53;7.63;;;15.90;99.90;;;;;;4994990;28;20868;-63
2022/06/14 05:30:50;;;;;;;11.53;8.23;;;16.00;99.90;;;;;;4995095;28;20438;-63
2022/06/14 05:33:31;;;;;;;14.20;9.57;;;16.10;99.90;;;;;;4995274;28;20791;-63
2022/06/14 05:36:04;;;;;;;9.87;8.77;;;16.20;99.90;;;;;;4994710;28;20891;-63
2022/06/14 05:38:39;;;;;;;10.10;8.47;;;16.30;99.90;;;;;;4995056;28;20438;-63
2022/06/14 05:41:11;;;;;;;9.53;8.53;;;16.40;99.90;;;;;;4995234;28;20476;-62
2022/06/14 05:43:44;;;;;;;9.33;8.33;;;16.40;99.90;;;;;;4995721;28;20468;-63
2022/06/14 05:46:15;;;;;;;8.83;8.00;;;16.50;99.90;;;;;;4995880;28;20537;-63
2022/06/14 05:48:48;;;;;;;10.03;8.63;;;16.60;99.90;;;;;;4996163;28;20521;-63
2022/06/14 05:51:18;;;;;;;10.57;7.97;;;16.80;99.90;;;;;;4995780;28;20507;-63
2022/06/14 05:53:48;;;;;;;10.43;8.63;;;17.00;99.90;;;;;;4995059;28;20512;-64
2022/06/14 05:56:21;;;;;;;9.07;8.17;;;17.10;99.90;;;;;;4994816;28;20445;-63
2022/06/14 05:58:54;;;;;;;9.90;7.07;;;17.30;99.90;;;;;;4994664;28;20441;-63
2022/06/14 06:01:25;;;;;;;7.93;7.13;;;17.40;99.90;;;;;;4994685;28;20490;-64
2022/06/14 06:03:59;;;;;;;16.87;8.40;;;17.60;99.90;;;;;;4994567;28;20917;-63
2022/06/14 06:06:31;;;;;;;7.57;6.73;;;17.70;99.90;;;;;;4995054;28;20448;-63
2022/06/14 06:09:02;;;;;;;8.87;7.97;;;17.80;99.90;;;;;;4994740;28;20489;-62
2022/06/14 06:11:36;;;;;;;7.50;6.77;;;17.90;99.90;;;;;;4994587;28;20984;-63
2022/06/14 06:14:07;;;;;;;9.43;6.80;;;18.00;99.90;;;;;;4994985;28;20434;-63
2022/06/14 06:16:38;;;;;;;8.80;7.57;;;18.10;99.90;;;;;;4994869;28;20519;-64
2022/06/14 06:19:11;;;;;;;12.00;6.70;;;18.30;99.90;;;;;;4994657;28;20776;-63
2022/06/14 06:21:45;;;;;;;9.13;6.90;;;18.40;99.90;;;;;;4994679;28;20484;-64
2022/06/14 06:24:19;;;;;;;9.60;7.70;;;18.60;99.90;;;;;;4995010;28;20438;-63
2022/06/14 06:26:50;;;;;;;12.17;7.07;;;18.80;99.90;;;;;;4995190;28;20508;-63
2022/06/14 06:29:24;;;;;;;10.67;7.00;;;19.00;99.90;;;;;;4994788;28;20483;-63
2022/06/14 06:31:51;;;;;;;7.80;6.40;;;19.20;99.90;;;;;;4994970;28;20473;-63
2022/06/14 06:34:19;;;;;;;7.40;6.67;;;19.40;99.90;;;;;;4994762;28;20464;-63
2022/06/14 06:36:58;;;;;;;7.97;7.17;;;19.70;99.90;;;;;;4994594;28;20454;-63
2022/06/14 06:39:31;;;;;;;11.17;7.80;;;19.70;99.90;;;;;;4994451;28;20465;-63
2022/06/14 06:42:04;;;;;;;7.23;6.53;;;19.80;99.90;;;;;;4994524;28;20481;-63
2022/06/14 06:44:37;;;;;;;9.40;6.70;;;20.10;99.90;;;;;;4994410;28;20438;-64
2022/06/14 06:47:11;;;;;;;11.30;6.87;;;20.30;99.90;;;;;;4994599;28;20434;-64
2022/06/14 06:49:48;;;;;;;9.27;7.53;;;20.50;99.90;;;;;;4998111;28;20973;-63
2022/06/14 06:52:20;;;;;;;8.20;7.10;;;20.70;99.90;;;;;;4998280;28;20497;-63
2022/06/14 06:54:54;;;;;;;7.33;6.70;;;20.80;99.90;;;;;;4997878;28;20465;-63
2022/06/14 06:57:23;;;;;;;11.73;6.60;;;21.10;99.90;;;;;;4998301;28;20434;-63
2022/06/14 06:59:52;;;;;;;10.40;5.47;;;21.40;99.90;;;;;;4998607;28;20445;-63
2022/06/14 07:02:24;;;;;;;8.23;6.10;;;21.70;99.90;;;;;;4998389;28;20481;-62
2022/06/14 07:05:05;;;;;;;7.50;5.93;;;22.30;99.90;;;;;;4998477;28;20441;-62
2022/06/14 07:07:48;;;;;;;6.87;6.17;;;22.90;98.10;;;;;;4998342;28;20445;-64
2022/06/14 07:10:25;;;;;;;9.03;5.80;;;23.70;96.10;;;;;;4997968;28;20441;-63
2022/06/14 07:12:58;;;;;;;8.77;5.27;;;24.10;94.50;;;;;;4998926;28;20438;-63
2022/06/14 07:15:31;;;;;;;7.53;5.63;;;24.70;92.90;;;;;;5000013;28;20433;-63
2022/06/14 07:18:04;;;;;;;6.57;5.70;;;25.30;86.60;;;;;;4999706;28;20789;-63
2022/06/14 07:20:48;;;;;;;8.87;6.03;;;25.80;84.50;;;;;;5001065;28;20434;-63
2022/06/14 07:23:22;;;;;;;5.40;4.60;;;26.10;81.20;;;;;;5002155;28;20445;-63
2022/06/14 07:25:58;;;;;;;7.40;5.50;;;26.50;75.40;;;;;;5003440;28;20441;-63
2022/06/14 07:28:32;;;;;;;11.10;5.23;;;27.10;73.70;;;;;;4999749;28;20461;-63
2022/06/14 07:31:04;;;;;;;7.40;5.50;;;27.40;74.70;;;;;;4997281;28;20977;-62
2022/06/14 07:33:32;;;;;;;7.17;5.13;;;27.60;74.10;;;;;;4997360;28;20442;-63
2022/06/14 07:36:03;;;;;;;7.63;4.80;;;27.90;73.20;;;;;;4997319;28;20460;-63
2022/06/14 07:38:36;;;;;;;6.73;5.33;;;28.40;68.50;;;;;;4997271;28;20434;-64
2022/06/14 07:41:11;;;;;;;6.17;5.07;;;28.70;66.30;;;;;;4997175;28;20481;-62
2022/06/14 07:43:45;;;;;;;6.83;4.90;;;28.90;64.80;;;;;;4997056;28;20449;-63
2022/06/14 07:46:16;;;;;;;7.83;5.37;;;29.10;66.20;;;;;;4997065;28;20551;-63
2022/06/14 07:48:47;;;;;;;9.63;5.40;;;29.30;65.50;;;;;;4996973;28;20544;-64
2022/06/14 07:51:24;;;;;;;6.93;5.10;;;29.50;64.80;;;;;;4996950;28;20477;-63
2022/06/14 07:53:58;;;;;;;6.77;5.30;;;29.40;63.50;;;;;;4996611;28;20896;-64
2022/06/14 07:56:30;;;;;;;6.63;5.33;;;28.90;63.10;;;;;;4996896;28;20449;-63
2022/06/14 07:58:59;;;;;;;6.63;4.90;;;29.20;62.10;;;;;;4996444;28;20458;-64
2022/06/14 08:01:31;;;;;;;5.47;5.00;;;29.40;62.20;;;;;;4996332;28;20482;-63
2022/06/14 08:04:07;;;;;;;8.20;5.20;;;29.60;59.90;;;;;;4996428;28;20438;-63
2022/06/14 08:06:38;;;;;;;7.87;5.87;;;29.80;63.40;;;;;;4996640;28;20500;-64
2022/06/14 08:09:10;;;;;;;5.50;4.80;;;29.80;63.30;;;;;;4996578;28;20501;-63
2022/06/14 08:11:42;;;;;;;6.60;4.87;;;29.60;61.60;;;;;;4997689;28;20473;-64
2022/06/14 08:14:14;;;;;;;7.93;5.10;;;29.40;60.30;;;;;;4999396;28;20508;-64
2022/06/14 08:16:42;;;;;;;5.17;4.67;;;29.10;61.80;;;;;;4996931;28;20448;-64
2022/06/14 08:19:12;;;;;;;5.50;5.10;;;28.80;64.70;;;;;;4997498;28;20456;-64
2022/06/14 08:21:46;;;;;;;10.40;5.40;;;28.90;61.90;;;;;;4996681;28;20474;-64
2022/06/14 08:24:17;;;;;;;5.97;4.70;;;29.40;60.00;;;;;;4997137;28;20454;-64
2022/06/14 08:26:48;;;;;;;5.07;4.60;;;30.00;59.20;;;;;;4996690;28;20587;-64
2022/06/14 08:29:21;;;;;;;6.80;5.47;;;30.30;56.00;;;;;;4997587;28;20472;-64
2022/06/14 08:31:52;;;;;;;7.30;5.67;;;30.10;57.90;;;;;;4997696;28;20477;-63
2022/06/14 08:34:25;;;;;;;6.30;4.77;;;30.10;57.80;;;;;;4998053;28;20442;-64
2022/06/14 08:37:00;;;;;;;4.80;4.40;;;30.40;57.30;;;;;;4996497;28;20465;-64
2022/06/14 08:39:33;;;;;;;7.40;5.20;;;30.60;56.60;;;;;;5005133;28;20440;-64
2022/06/14 08:42:10;;;;;;;6.33;4.43;;;30.80;53.40;;;;;;5017907;28;20469;-64
2022/06/14 08:44:41;;;;;;;5.23;4.43;;;31.10;53.70;;;;;;5018105;28;20464;-64
2022/06/14 08:47:43;;;;;;;8.80;5.10;;;31.50;53.00;;;;;;5015459;28;20438;-64
2022/06/14 08:50:23;;;;;;;7.03;5.00;;;31.50;52.80;;;;;;5007133;28;20537;-65
2022/06/14 08:53:18;;;;;;;4.80;4.27;;;31.50;55.40;;;;;;4995747;28;20437;-65
2022/06/14 08:56:06;;;;;;;5.70;4.37;;;31.80;54.10;;;;;;4996009;28;20438;-65
2022/06/14 08:59:03;;;;;;;6.50;4.90;;;32.20;55.10;;;;;;4996007;28;20771;-63
2022/06/14 09:01:48;;;;;;;4.63;4.10;;;32.80;52.20;;;;;;4995566;28;20564;-66
2022/06/14 09:04:38;;;;;;;4.83;4.40;;;33.40;50.40;;;;;;4995680;28;20548;-65
2022/06/14 09:07:42;;;;;;;4.50;4.10;;;33.70;51.10;;;;;;4995512;28;20508;-64
2022/06/14 09:10:30;;;;;;;4.50;4.10;;;33.40;50.50;;;;;;4988006;28;20484;-64
2022/06/14 09:13:29;;;;;;;10.60;4.80;;;33.20;51.10;;;;;;4995661;28;20446;-65
2022/06/14 09:16:28;;;;;;;5.87;3.73;;;32.60;50.10;;;;;;4995299;28;20477;-64
2022/06/14 09:19:02;;;;;;;4.43;3.90;;;32.90;49.00;;;;;;4994877;28;20508;-65
2022/06/14 09:21:40;;;;;;;6.57;3.43;;;33.30;49.40;;;;;;4994733;28;20816;-65
2022/06/14 09:24:17;;;;;;;4.30;3.80;;;33.80;48.90;;;;;;4995203;28;20437;-64
2022/06/14 09:27:20;;;;;;;8.60;3.90;;;33.60;45.80;;;;;;4995315;28;20492;-64
2022/06/14 09:30:09;;;;;;;5.07;3.93;;;33.50;48.20;;;;;;4995045;28;20568;-65
2022/06/14 09:33:16;;;;;;;4.50;4.00;;;33.20;47.10;;;;;;4995021;28;20480;-65
2022/06/14 09:36:10;;;;;;;7.53;3.57;;;33.20;50.70;;;;;;4971031;28;20998;-65
2022/06/14 09:39:23;;;;;;;5.07;4.33;;;33.40;47.00;;;;;;4995325;28;20441;-65
2022/06/14 09:42:22;;;;;;;4.23;3.50;;;34.00;47.00;;;;;;4994846;28;20500;-65
2022/06/14 09:45:07;;;;;;;4.67;3.20;;;34.30;45.40;;;;;;4994910;28;20473;-65
2022/06/14 09:47:55;;;;;;;6.33;4.17;;;34.70;46.00;;;;;;4995018;28;20902;-64
2022/06/14 09:50:57;;;;;;;4.47;4.07;;;35.00;44.00;;;;;;4994804;28;20470;-65
2022/06/14 09:54:00;;;;;;;6.27;3.40;;;35.20;43.80;;;;;;4992851;28;20464;-65
2022/06/14 09:57:00;;;;;;;7.13;3.70;;;34.70;45.10;;;;;;4994769;28;20452;-65
2022/06/14 09:59:46;;;;;;;5.07;3.80;;;35.10;44.70;;;;;;4994661;28;20492;-65
2022/06/14 10:02:20;;;;;;;5.23;3.70;;;35.30;43.20;;;;;;4994283;28;20480;-65
2022/06/14 10:05:09;;;;;;;3.23;2.90;;;34.70;43.70;;;;;;4994657;28;20433;-64
2022/06/14 10:07:56;;;;;;;4.47;2.97;;;34.70;42.30;;;;;;4994685;28;20825;-64
2022/06/14 10:10:38;;;;;;;2.83;2.57;;;34.70;42.90;;;;;;4994393;28;20469;-64
2022/06/14 10:13:28;;;;;;;3.90;3.60;;;35.00;44.70;;;;;;4994672;28;20469;-64
2022/06/14 10:16:05;;;;;;;5.73;4.00;;;35.00;44.60;;;;;;4994524;28;20445;-66
2022/06/14 10:18:52;;;;;;;4.37;3.60;;;34.70;44.00;;;;;;4994788;28;20448;-66
2022/06/14 10:21:23;;;;;;;3.77;3.33;;;34.10;43.20;;;;;;4994831;28;20820;-66
2022/06/14 10:24:02;;;;;;;3.30;3.17;;;34.10;45.50;;;;;;4998411;28;20920;-66
2022/06/14 10:29:45;;;;;;;3.93;3.23;;;34.10;45.30;;;;;;4998921;28;20951;-66
2022/06/14 10:32:39;;;;;;;4.63;4.23;;;34.30;43.90;;;;;;4998993;28;20476;-66
2022/06/14 10:35:13;;;;;;;6.23;3.70;;;34.60;45.60;;;;;;4998705;28;20441;-66
2022/06/14 10:37:57;;;;;;;3.80;3.50;;;35.00;44.90;;;;;;4998319;28;20504;-66
2022/06/14 10:40:40;;;;;;;6.23;3.77;;;35.30;43.90;;;;;;4999274;28;20839;-67
2022/06/14 10:43:13;;;;;;;5.63;4.23;;;35.40;42.80;;;;;;4999133;28;20441;-65
2022/06/14 10:45:45;;;;;;;5.00;4.50;;;35.30;42.70;;;;;;4998974;28;20452;-66
2022/06/14 10:48:45;;;;;;;3.30;3.00;;;35.00;44.00;;;;;;4998128;28;20448;-66
2022/06/14 10:51:28;;;;;;;4.83;3.53;;;34.60;44.30;;;;;;4998037;28;20523;-67
2022/06/14 10:54:00;;;;;;;5.53;3.57;;;34.50;44.70;;;;;;4997986;28;20441;-66
2022/06/14 10:56:54;;;;;;;3.50;3.30;;;34.20;42.60;;;;;;4997655;28;20460;-66
2022/06/14 10:59:50;;;;;;;4.10;3.10;;;34.20;42.00;;;;;;4997979;28;20433;-66
2022/06/14 11:02:27;;;;;;;4.97;4.17;;;33.80;45.10;;;;;;4997160;28;20481;-66
2022/06/14 11:05:00;;;;;;;4.33;3.57;;;34.10;46.00;;;;;;4998426;28;20528;-67
2022/06/14 11:07:52;;;;;;;6.80;3.87;;;33.80;44.80;;;;;;4997822;28;20469;-65
2022/06/14 11:10:45;;;;;;;5.00;4.53;;;34.10;42.80;;;;;;4997544;28;20469;-66
2022/06/14 11:13:20;;;;;;;4.13;3.60;;;34.30;42.80;;;;;;4997703;28;20441;-66
2022/06/14 11:15:52;;;;;;;5.07;3.40;;;34.30;43.30;;;;;;4997595;28;20448;-66
2022/06/14 11:18:48;;;;;;;3.83;3.53;;;34.60;43.30;;;;;;4997731;28;20442;-66
2022/06/14 11:21:40;;;;;;;4.10;3.80;;;33.90;44.80;;;;;;4997756;28;20469;-66
2022/06/14 11:24:15;;;;;;;3.70;3.37;;;33.40;43.20;;;;;;4998190;28;20441;-66
2022/06/14 11:26:51;;;;;;;5.17;4.80;;;32.90;43.40;;;;;;4997305;28;20499;-66
2022/06/14 11:29:28;;;;;;;6.60;2.97;;;32.50;43.50;;;;;;4997495;28;20470;-67
2022/06/14 11:32:02;;;;;;;4.23;3.33;;;31.70;45.10;;;;;;4997076;28;20480;-65
2022/06/14 11:34:45;;;;;;;8.60;3.83;;;31.20;46.50;;;;;;4996884;28;20920;-65
2022/06/14 11:37:28;;;;;;;3.30;3.00;;;30.90;48.70;;;;;;4997479;28;20442;-66
2022/06/14 11:40:02;;;;;;;5.03;3.60;;;30.80;47.00;;;;;;4997305;28;20434;-66
2022/06/14 11:42:33;;;;;;;8.10;3.40;;;30.40;49.10;;;;;;4997127;28;20477;-65
2022/06/14 11:45:18;;;;;;;3.17;2.80;;;30.20;49.10;;;;;;4997067;28;20442;-66
2022/06/14 11:47:52;;;;;;;4.40;3.37;;;30.10;50.20;;;;;;4996913;28;20469;-66
2022/06/14 11:50:29;;;;;;;3.93;3.53;;;30.00;48.40;;;;;;4996803;28;20516;-65
2022/06/14 11:53:37;;;;;;;4.35;3.58;;;30.00;51.00;;;;;;4996549;28;20471;-64
2022/06/14 11:56:11;;;;;;;4.30;3.37;;;29.90;50.80;;;;;;4993251;28;20198;-66
2022/06/14 11:58:57;;;;;;;6.07;3.80;;;29.70;50.60;;;;;;4996793;28;20445;-66
2022/06/14 12:01:35;;;;;;;4.73;3.70;;;29.40;49.30;;;;;;4996325;28;20917;-67
2022/06/14 12:04:20;;;;;;;3.93;3.53;;;28.90;47.80;;;;;;4997901;28;20438;-65
2022/06/14 12:06:54;;;;;;;5.00;3.50;;;28.90;49.60;;;;;;4997614;28;20445;-66
2022/06/14 12:09:38;;;;;;;3.73;3.33;;;28.50;48.10;;;;;;4997334;28;20442;-66
2022/06/14 12:12:18;;;;;;;4.40;3.90;;;28.60;49.80;;;;;;4996579;28;20486;-66
2022/06/14 12:15:00;;;;;;;5.17;3.73;;;28.60;49.10;;;;;;4996415;28;20445;-67
2022/06/14 12:17:30;;;;;;;3.30;3.00;;;28.60;53.60;;;;;;4997212;28;20474;-66
2022/06/14 12:20:04;;;;;;;4.33;3.90;;;28.70;50.20;;;;;;4996213;28;20438;-65
2022/06/14 12:22:38;;;;;;;4.30;3.33;;;28.70;50.30;;;;;;4996219;28;20484;-66
2022/06/14 12:28:02;;;;;;;7.20;3.90;;;28.40;49.70;;;;;;4996371;28;20426;-66
2022/06/14 12:30:33;;;;;;;5.30;3.93;;;28.40;53.10;;;;;;4996002;28;20525;-65
2022/06/14 12:33:06;;;;;;;4.50;4.10;;;28.60;52.50;;;;;;4996484;28;20473;-66
2022/06/14 12:35:41;;;;;;;4.00;3.53;;;28.70;53.30;;;;;;4996387;28;20437;-65
2022/06/14 12:38:17;;;;;;;11.60;3.97;;;28.80;53.50;;;;;;4996272;28;20449;-66
2022/06/14 12:40:48;;;;;;;3.90;3.50;;;29.10;53.70;;;;;;4995946;28;20473;-65
2022/06/14 12:43:20;;;;;;;4.97;4.03;;;29.20;55.20;;;;;;4995814;28;20442;-66
2022/06/14 12:45:51;;;;;;;3.70;3.20;;;29.40;53.20;;;;;;4994929;28;20508;-65
2022/06/14 12:48:32;;;;;;;8.03;5.63;;;29.50;51.40;;;;;;4996884;28;20449;-65
2022/06/14 12:51:02;;;;;;;4.07;3.37;;;29.40;54.80;;;;;;4996017;28;20536;-66
2022/06/14 12:53:39;;;;;;;4.35;3.20;;;29.30;50.20;;;;;;4995649;28;20460;-64
2022/06/14 12:56:13;;;;;;;3.80;3.23;;;29.00;51.50;;;;;;4995458;28;20655;-64
2022/06/14 12:58:48;;;;;;;6.40;3.93;;;29.00;52.40;;;;;;4995667;28;20492;-64
2022/06/14 13:01:23;;;;;;;4.13;3.27;;;29.00;51.30;;;;;;4995471;28;20491;-65
2022/06/14 13:03:56;;;;;;;4.97;4.50;;;29.10;52.70;;;;;;4995602;28;20448;-64
2022/06/14 13:06:54;;;;;;;5.03;4.23;;;29.10;51.30;;;;;;4995525;28;20448;-65
2022/06/14 13:09:31;;;;;;;4.53;4.13;;;28.70;49.10;;;;;;4995690;28;20438;-64
2022/06/14 13:12:10;;;;;;;4.37;3.63;;;28.60;51.60;;;;;;4995060;28;20508;-65
2022/06/14 13:14:47;;;;;;;3.70;3.33;;;28.70;53.30;;;;;;4995333;28;20442;-64
2022/06/14 13:17:27;;;;;;;4.17;3.77;;;28.80;51.20;;;;;;4995593;28;20433;-65
2022/06/14 13:19:58;;;;;;;5.00;4.50;;;28.80;52.50;;;;;;4995287;28;20786;-64
2022/06/14 13:22:45;;;;;;;4.00;3.60;;;28.80;52.60;;;;;;4995142;28;20480;-64
2022/06/14 13:25:27;;;;;;;4.50;3.57;;;28.80;53.00;;;;;;4995048;28;20528;-64
2022/06/14 13:28:08;;;;;;;8.10;4.23;;;28.90;52.30;;;;;;4995170;28;20438;-66
2022/06/14 13:30:42;;;;;;;5.90;3.67;;;29.00;50.00;;;;;;4994895;28;20561;-65
2022/06/14 13:33:32;;;;;;;6.87;3.80;;;29.10;53.00;;;;;;4995129;28;20448;-65
2022/06/14 13:36:09;;;;;;;3.73;3.40;;;29.20;50.90;;;;;;4995148;28;20446;-65
2022/06/14 13:38:42;;;;;;;4.67;3.60;;;29.10;49.70;;;;;;4994690;28;20437;-64
2022/06/14 13:41:14;;;;;;;4.03;3.73;;;29.00;50.60;;;;;;4994902;28;20473;-65
2022/06/14 13:43:50;;;;;;;3.80;3.50;;;29.00;52.00;;;;;;4994926;28;20445;-64
2022/06/14 13:46:24;;;;;;;5.28;2.90;;;29.10;51.40;;;;;;4993828;28;20820;-65
2022/06/14 13:49:00;;;;;;;4.00;3.70;;;29.10;52.70;;;;;;4995846;28;20178;-65
2022/06/14 13:51:35;;;;;;;4.23;3.67;;;29.00;49.40;;;;;;4995363;28;20481;-65
2022/06/14 13:54:07;;;;;;;5.33;4.10;;;29.00;50.40;;;;;;4995236;28;20442;-65
2022/06/14 13:56:44;;;;;;;4.80;3.53;;;28.90;51.70;;;;;;4994833;28;20445;-65
2022/06/14 13:59:15;;;;;;;5.15;3.20;;;29.10;50.90;;;;;;4993863;28;20535;-64
2022/06/14 14:01:50;;;;;;;3.70;3.50;;;29.30;49.60;;;;;;4994499;28;20223;-65
2022/06/14 14:04:26;;;;;;;3.93;3.47;;;29.30;51.30;;;;;;4994747;28;20441;-65
2022/06/14 14:07:06;;;;;;;4.43;3.77;;;29.40;51.60;;;;;;4994658;28;20496;-65
2022/06/14 14:09:44;;;;;;;4.03;3.63;;;29.20;51.60;;;;;;4994750;28;20442;-64
2022/06/14 14:12:18;;;;;;;4.80;3.60;;;29.40;49.90;;;;;;4994670;28;20531;-64
2022/06/14 14:15:18;;;;;;;3.97;2.90;;;29.40;49.80;;;;;;4994797;28;20464;-64
2022/06/14 14:17:52;;;;;;;4.47;4.17;;;29.30;52.50;;;;;;4994590;28;20496;-64
2022/06/14 14:20:36;;;;;;;3.93;3.63;;;29.20;49.90;;;;;;4994467;28;20438;-65
2022/06/14 14:23:09;;;;;;;5.50;3.67;;;29.00;48.90;;;;;;4994745;28;20438;-64
2022/06/14 14:25:40;;;;;;;4.13;3.40;;;29.00;49.50;;;;;;4994860;28;20461;-65
2022/06/14 14:28:17;;;;;;;4.70;4.30;;;29.00;49.80;;;;;;4994681;28;20442;-64
2022/06/14 14:30:51;;;;;;;3.40;3.00;;;29.10;51.60;;;;;;4994482;28;20489;-65
2022/06/14 14:33:24;;;;;;;3.23;2.83;;;29.00;51.40;;;;;;4994703;28;20442;-64
2022/06/14 14:35:54;;;;;;;5.23;3.63;;;29.20;51.20;;;;;;4994641;28;20442;-64
2022/06/14 14:38:27;;;;;;;5.17;3.57;;;29.30;50.50;;;;;;4994758;28;20458;-64
2022/06/14 14:43:47;;;;;;;3.90;3.60;;;29.00;50.00;;;;;;4994626;28;20952;-65
2022/06/14 14:46:18;;;;;;;5.43;4.03;;;28.80;50.00;;;;;;4994028;28;20798;-64
2022/06/14 14:48:50;;;;;;;4.00;3.70;;;28.70;51.90;;;;;;4994683;28;20443;-64
2022/06/14 14:51:25;;;;;;;6.30;3.47;;;28.70;50.90;;;;;;4994268;28;20485;-65
2022/06/14 14:54:03;;;;;;;4.13;3.57;;;28.70;50.90;;;;;;4994338;28;20442;-64
2022/06/14 14:56:36;;;;;;;3.37;3.07;;;28.70;50.70;;;;;;4993831;28;20913;-65
2022/06/14 14:59:11;;;;;;;3.40;3.20;;;28.80;52.00;;;;;;4994075;28;20438;-64
2022/06/14 15:07:30;;;;;;;4.63;3.70;;;29.00;52.10;;;;;;4994192;28;20564;-64
2022/06/14 15:10:00;;;;;;;3.73;3.43;;;28.90;51.00;;;;;;4997124;28;20445;-64
2022/06/14 15:12:34;;;;;;;5.80;3.77;;;29.00;51.30;;;;;;4997868;28;20470;-65
2022/06/14 15:15:03;;;;;;;3.57;3.27;;;28.90;49.80;;;;;;4997893;28;20492;-65
2022/06/14 15:20:21;;;;;;;5.00;3.30;;;29.00;50.20;;;;;;4997658;28;20908;-64
2022/06/14 15:22:50;;;;;;;5.30;3.47;;;28.90;50.80;;;;;;4998360;28;20454;-64
2022/06/14 15:25:21;;;;;;;4.30;3.33;;;28.90;49.70;;;;;;4999220;28;20464;-64
2022/06/14 15:27:51;;;;;;;4.13;3.77;;;28.90;49.90;;;;;;5015357;28;20434;-64
2022/06/14 15:30:42;;;;;;;4.23;3.53;;;28.90;51.20;;;;;;5017531;28;20446;-65
2022/06/14 15:33:27;;;;;;;4.03;3.53;;;28.90;50.10;;;;;;5017875;28;20431;-64
2022/06/14 15:35:57;;;;;;;6.50;3.30;;;28.90;50.50;;;;;;4999691;28;20437;-65
2022/06/14 15:38:28;;;;;;;3.97;3.57;;;28.90;51.90;;;;;;4998729;28;20445;-65
2022/06/14 15:41:16;;;;;;;4.70;3.40;;;29.00;51.20;;;;;;4997787;28;20473;-64
2022/06/14 15:44:01;;;;;;;3.10;2.90;;;29.00;51.40;;;;;;4997519;28;20460;-65
2022/06/14 15:46:30;;;;;;;4.00;3.40;;;29.10;51.00;;;;;;4997217;28;20438;-65
2022/06/14 15:49:05;;;;;;;3.57;3.30;;;29.10;50.70;;;;;;4997528;28;20453;-64
2022/06/14 15:51:35;;;;;;;3.90;3.60;;;29.10;50.40;;;;;;4997331;28;20980;-65
2022/06/14 15:54:04;;;;;;;3.60;3.10;;;29.10;50.50;;;;;;4998638;28;20460;-64
2022/06/14 15:56:35;;;;;;;6.03;4.97;;;29.10;49.90;;;;;;4998220;28;20453;-65
2022/06/14 15:59:06;;;;;;;4.03;3.70;;;29.00;49.70;;;;;;4997144;28;20446;-64
2022/06/14 16:01:35;;;;;;;5.10;4.00;;;29.00;51.00;;;;;;4996677;28;20489;-65
2022/06/14 16:04:05;;;;;;;4.30;3.27;;;28.90;49.70;;;;;;4997644;28;20932;-65
2022/06/14 16:06:39;;;;;;;4.17;3.77;;;28.60;49.10;;;;;;4997853;28;20454;-64
2022/06/14 16:09:10;;;;;;;4.30;4.03;;;28.50;49.90;;;;;;4998511;28;20532;-64
2022/06/14 16:11:44;;;;;;;4.30;3.90;;;28.60;50.60;;;;;;4996969;28;20577;-65
2022/06/14 16:14:12;;;;;;;3.20;3.03;;;28.60;50.80;;;;;;4996800;28;20457;-65
2022/06/14 16:16:43;;;;;;;4.00;3.60;;;28.50;49.50;;;;;;4996713;28;20453;-64
2022/06/14 16:19:30;;;;;;;6.33;3.70;;;28.40;50.10;;;;;;4996357;28;20446;-64
2022/06/14 16:22:03;;;;;;;3.70;3.50;;;28.30;51.10;;;;;;4996503;28;20556;-64
2022/06/14 16:24:33;;;;;;;4.30;4.00;;;28.40;52.20;;;;;;4996617;28;20492;-64
2022/06/14 16:27:10;;;;;;;6.30;4.87;;;28.40;52.00;;;;;;4996394;28;20457;-65
2022/06/14 16:29:46;;;;;;;3.87;3.53;;;28.40;52.00;;;;;;4996424;28;20436;-65
2022/06/14 16:32:19;;;;;;;3.07;2.67;;;28.40;50.70;;;;;;4996217;28;20514;-64
2022/06/14 16:34:53;;;;;;;4.53;3.03;;;28.30;50.80;;;;;;4996808;28;20928;-64
2022/06/14 16:37:29;;;;;;;7.30;3.70;;;28.40;51.30;;;;;;4997853;28;20438;-65
2022/06/14 16:40:04;;;;;;;6.00;3.80;;;28.30;51.50;;;;;;5005780;28;20476;-65
2022/06/14 16:42:43;;;;;;;4.63;3.60;;;28.30;51.50;;;;;;5008192;28;20452;-64
2022/06/14 16:45:19;;;;;;;3.67;3.37;;;28.20;52.20;;;;;;5005221;28;20518;-64
2022/06/14 16:47:57;;;;;;;3.70;3.40;;;28.20;51.50;;;;;;5012849;28;20438;-64
2022/06/14 16:50:34;;;;;;;5.23;3.27;;;28.10;51.50;;;;;;5004339;28;20782;-64
2022/06/14 16:53:14;;;;;;;5.00;4.07;;;28.10;51.50;;;;;;4996713;28;20901;-65
2022/06/14 16:55:50;;;;;;;4.00;3.70;;;28.10;51.60;;;;;;4996505;28;20520;-64
2022/06/14 16:58:22;;;;;;;3.70;3.40;;;28.00;51.00;;;;;;4996147;28;20524;-64
2022/06/14 17:00:53;;;;;;;3.57;3.30;;;28.00;52.50;;;;;;4995850;28;20477;-64
2022/06/14 17:03:28;;;;;;;4.10;3.17;;;28.00;52.50;;;;;;4996438;28;20437;-65
2022/06/14 17:06:05;;;;;;;3.50;3.30;;;28.00;52.70;;;;;;4996027;28;20434;-65
2022/06/14 17:08:53;;;;;;;4.70;3.60;;;27.90;52.10;;;;;;4996801;28;20442;-64
2022/06/14 17:11:27;;;;;;;6.17;4.17;;;27.90;53.30;;;;;;4995233;28;21051;-64
2022/06/14 17:13:59;;;;;;;5.63;3.67;;;27.80;53.10;;;;;;4996592;28;20522;-64
2022/06/14 17:16:35;;;;;;;4.07;3.73;;;27.70;52.20;;;;;;4995606;28;20465;-64
2022/06/14 17:19:12;;;;;;;3.80;3.10;;;27.70;52.70;;;;;;4995850;28;20438;-64
2022/06/14 17:21:48;;;;;;;3.70;3.40;;;27.60;53.70;;;;;;4995619;28;20481;-64
2022/06/14 17:24:21;;;;;;;4.20;3.90;;;27.50;53.90;;;;;;4995459;28;20438;-64
2022/06/14 17:32:30;;;;;;;3.50;3.10;;;27.30;54.40;;;;;;4998590;28;20563;-65
2022/06/14 17:34:59;;;;;;;4.47;3.13;;;27.30;54.90;;;;;;4996823;28;20806;-64
2022/06/14 17:37:31;;;;;;;4.43;4.03;;;27.20;55.40;;;;;;4994964;28;20957;-64
2022/06/14 17:40:05;;;;;;;4.10;3.90;;;27.20;55.50;;;;;;4995116;28;20438;-64
2022/06/14 17:42:35;;;;;;;3.70;3.50;;;27.10;55.70;;;;;;4995261;28;20477;-64
2022/06/14 17:45:08;;;;;;;4.40;4.00;;;27.00;55.80;;;;;;4995292;28;20442;-64
2022/06/14 17:47:42;;;;;;;13.63;4.40;;;27.00;56.50;;;;;;4995219;28;20752;-64
2022/06/14 17:50:16;;;;;;;5.00;4.57;;;27.00;57.80;;;;;;4994740;28;20449;-67
2022/06/14 17:52:47;;;;;;;3.70;3.40;;;26.90;57.50;;;;;;4994404;28;20984;-66
2022/06/14 17:55:34;;;;;;;5.43;3.60;;;26.90;57.50;;;;;;4994601;28;20441;-66
2022/06/14 17:58:09;;;;;;;3.90;3.60;;;26.90;59.50;;;;;;4994663;28;20445;-66